Time;durP1;ratioP1;P1;durP2;ratioP2;P2;SDS_P1;SDS_P2;PMS_P1;PMS_P2;Temp;Humidity;BMP_temperature;BMP_pressure;BME280_temperature;BME280_humidity;BME280_pressure;Samples;Min_cycle;Max_cycle;Signal;HPM_P1;HPM_P2
2022/02/12 00:01:53;;;;;;;1999.90;999.90;;;;;;;-3.58;60.76;102924.81;5066818;27;100506;-70
2022/02/12 00:04:21;;;;;;;1999.90;999.90;;;;;;;-3.62;60.68;102921.72;5042868;27;98407;-71
2022/02/12 00:06:49;;;;;;;1999.90;999.90;;;;;;;-3.67;60.66;102928.06;5050102;22;99599;-82
2022/02/12 00:09:27;;;;;;;1999.90;999.90;;;;;;;-3.71;60.66;102931.09;4980295;28;97183;-70
2022/02/12 00:11:57;;;;;;;1999.90;999.90;;;;;;;-3.74;60.91;102930.75;4978846;28;97583;-70
2022/02/12 00:14:24;;;;;;;1999.90;999.90;;;;;;;-3.77;60.86;102940.81;4985155;28;98569;-71
2022/02/12 00:16:52;;;;;;;1999.90;999.90;;;;;;;-3.78;60.91;102941.53;4988812;28;98937;-71
2022/02/12 00:19:20;;;;;;;1999.90;999.90;;;;;;;-3.82;61.10;102940.28;4982133;28;97073;-70
2022/02/12 00:21:47;;;;;;;1999.90;999.90;;;;;;;-3.81;61.15;102933.41;4986349;28;96893;-71
2022/02/12 00:24:16;;;;;;;1999.90;999.90;;;;;;;-3.81;60.78;102943.81;4982168;28;99194;-70
2022/02/12 00:26:44;;;;;;;1999.90;999.90;;;;;;;-3.84;61.23;102933.97;4977626;28;98812;-71
2022/02/12 00:29:13;;;;;;;1999.90;999.90;;;;;;;-3.82;61.17;102934.19;4978969;28;98850;-71
2022/02/12 00:31:41;;;;;;;1999.90;999.90;;;;;;;-3.79;61.05;102934.50;4988294;28;97098;-72
2022/02/12 00:34:08;;;;;;;1999.90;999.90;;;;;;;-3.78;60.76;102944.16;5001769;28;97704;-72
2022/02/12 00:36:36;;;;;;;1999.90;999.90;;;;;;;-3.75;60.80;102940.25;4984142;28;97691;-72
2022/02/12 00:39:04;;;;;;;1999.90;999.90;;;;;;;-3.73;61.09;102946.50;4985320;28;97083;-70
2022/02/12 00:41:32;;;;;;;1999.90;999.90;;;;;;;-3.72;60.93;102950.03;4986688;28;96911;-69
2022/02/12 00:44:00;;;;;;;1999.90;999.90;;;;;;;-3.72;60.31;102937.97;4989557;28;98149;-70
2022/02/12 00:46:29;;;;;;;1999.90;999.90;;;;;;;-3.74;60.51;102948.94;4990553;28;98850;-69
2022/02/12 00:48:57;;;;;;;1999.90;999.90;;;;;;;-3.78;60.53;102950.28;4988804;28;96877;-70
2022/02/12 00:51:25;;;;;;;1999.90;999.90;;;;;;;-3.82;60.82;102945.47;4987653;28;98024;-70
2022/02/12 00:53:53;;;;;;;1999.90;999.90;;;;;;;-3.86;60.53;102939.00;4996869;28;99081;-70
2022/02/12 00:56:21;;;;;;;1999.90;999.90;;;;;;;-3.88;60.82;102943.13;4988081;28;98169;-71
2022/02/12 00:58:48;;;;;;;1999.90;999.90;;;;;;;-3.90;60.65;102949.84;4992964;28;96846;-70
2022/02/12 01:01:16;;;;;;;1999.90;999.90;;;;;;;-3.88;60.70;102952.63;4983579;28;97504;-70
2022/02/12 01:03:45;;;;;;;1999.90;999.90;;;;;;;-3.93;60.72;102965.06;4991406;28;98975;-70
2022/02/12 01:06:13;;;;;;;1999.90;999.90;;;;;;;-3.96;60.67;102963.81;4986397;28;100740;-71
2022/02/12 01:08:41;;;;;;;1999.90;999.90;;;;;;;-4.04;60.61;102964.59;4991728;28;97038;-71
2022/02/12 01:11:09;;;;;;;1999.90;999.90;;;;;;;-4.08;60.61;102962.44;4989611;28;96859;-69
2022/02/12 01:13:37;;;;;;;1999.90;999.90;;;;;;;-4.14;60.99;102967.84;4968225;28;99314;-70
2022/02/12 01:16:05;;;;;;;1999.90;999.90;;;;;;;-4.16;60.80;102978.81;4984475;28;98775;-71
2022/02/12 01:18:33;;;;;;;1999.90;999.90;;;;;;;-4.20;60.85;102981.81;4990680;28;96839;-70
2022/02/12 01:21:02;;;;;;;1999.90;999.90;;;;;;;-4.25;60.75;102978.69;4986605;28;96880;-70
2022/02/12 01:23:30;;;;;;;1999.90;999.90;;;;;;;-4.31;60.71;102977.97;4985948;28;102717;-69
2022/02/12 01:25:57;;;;;;;1999.90;999.90;;;;;;;-4.33;60.97;102971.69;4983383;28;97787;-67
2022/02/12 01:28:25;;;;;;;1999.90;999.90;;;;;;;-4.34;61.10;102984.50;4984682;28;97283;-70
2022/02/12 01:30:53;;;;;;;1999.90;999.90;;;;;;;-4.34;61.15;102980.25;4987405;28;96899;-69
2022/02/12 01:33:21;;;;;;;1999.90;999.90;;;;;;;-4.31;61.02;102979.66;4983601;28;99332;-71
2022/02/12 01:35:49;;;;;;;1999.90;999.90;;;;;;;-4.30;61.19;102971.13;4987117;28;98838;-70
2022/02/12 01:38:18;;;;;;;1999.90;999.90;;;;;;;-4.27;61.03;102972.38;4968520;28;97099;-70
2022/02/12 01:40:46;;;;;;;1999.90;999.90;;;;;;;-4.26;61.07;102979.44;4969135;28;97626;-69
2022/02/12 01:43:14;;;;;;;1999.90;999.90;;;;;;;-4.25;61.14;102980.34;4985095;28;99754;-69
2022/02/12 01:45:42;;;;;;;1999.90;999.90;;;;;;;-4.25;61.12;102989.09;4986646;28;97815;-69
2022/02/12 01:48:10;;;;;;;1999.90;999.90;;;;;;;-4.24;61.12;102975.31;4985967;28;97615;-69
2022/02/12 01:50:38;;;;;;;1999.90;999.90;;;;;;;-4.25;60.96;102975.16;4986962;28;97211;-69
2022/02/12 01:53:06;;;;;;;1999.90;999.90;;;;;;;-4.25;61.07;102959.56;4983752;28;100822;-70
2022/02/12 01:55:35;;;;;;;1999.90;999.90;;;;;;;-4.27;61.03;102961.06;4982550;28;99094;-69
2022/02/12 01:58:06;;;;;;;1999.90;999.90;;;;;;;-4.31;60.79;102964.06;4982245;28;98316;-69
2022/02/12 02:00:35;;;;;;;1999.90;999.90;;;;;;;-4.36;61.07;102960.94;4980906;28;96865;-69
2022/02/12 02:03:03;;;;;;;1999.90;999.90;;;;;;;-4.37;61.07;102963.38;4979166;28;99815;-70
2022/02/12 02:05:33;;;;;;;1999.90;999.90;;;;;;;-4.39;61.08;102952.78;4978235;28;97317;-69
2022/02/12 02:08:01;;;;;;;1999.90;999.90;;;;;;;-4.40;61.25;102947.41;4976788;28;98638;-69
2022/02/12 02:10:29;;;;;;;1999.90;999.90;;;;;;;-4.44;61.28;102948.72;4979740;28;98376;-69
2022/02/12 02:12:58;;;;;;;1999.90;999.90;;;;;;;-4.46;60.96;102949.31;4975916;28;97688;-68
2022/02/12 02:15:41;;;;;;;1999.90;999.90;;;;;;;-4.48;61.35;102946.53;4980377;28;98276;-68
2022/02/12 02:18:09;;;;;;;1999.90;999.90;;;;;;;-4.48;61.02;102951.72;4982190;28;98578;-68
2022/02/12 02:20:36;;;;;;;1999.90;999.90;;;;;;;-4.52;60.90;102944.34;4983471;28;97463;-68
2022/02/12 02:23:17;;;;;;;1999.90;999.90;;;;;;;-4.55;61.12;102949.16;4978636;28;100581;-69
2022/02/12 02:25:45;;;;;;;1999.90;999.90;;;;;;;-4.53;61.26;102949.34;4982779;28;99091;-69
2022/02/12 02:28:28;;;;;;;1999.90;999.90;;;;;;;-4.55;61.30;102936.16;4983766;28;97127;-69
2022/02/12 02:30:56;;;;;;;1999.90;999.90;;;;;;;-4.52;61.40;102946.00;4984559;28;97307;-69
2022/02/12 02:33:24;;;;;;;1999.90;999.90;;;;;;;-4.51;61.40;102947.84;4980743;28;99116;-71
2022/02/12 02:35:52;;;;;;;1999.90;999.90;;;;;;;-4.50;61.45;102952.31;4979550;28;98001;-68
2022/02/12 02:38:21;;;;;;;1999.90;999.90;;;;;;;-4.49;61.11;102942.09;4999376;28;97033;-68
2022/02/12 02:40:49;;;;;;;1999.90;999.90;;;;;;;-4.50;61.34;102945.44;4983663;28;98597;-71
2022/02/12 02:43:17;;;;;;;1999.90;999.90;;;;;;;-4.51;61.23;102938.38;4983379;28;99277;-68
2022/02/12 02:45:45;;;;;;;1999.90;999.90;;;;;;;-4.52;61.45;102944.34;4987698;28;97678;-69
2022/02/12 02:48:13;;;;;;;1999.90;999.90;;;;;;;-4.53;61.41;102950.25;4988792;28;98599;-69
2022/02/12 02:56:13;;;;;;;1999.90;999.90;;;;;;;-4.54;61.52;102961.41;4976123;28;99247;-68
2022/02/12 02:58:43;;;;;;;1999.90;999.90;;;;;;;-4.54;61.58;102958.81;4980381;28;97656;-69
2022/02/12 03:01:12;;;;;;;1999.90;999.90;;;;;;;-4.52;61.63;102959.94;4976954;28;97305;-69
2022/02/12 03:03:41;;;;;;;1999.90;999.90;;;;;;;-4.51;61.44;102951.38;4981841;28;98679;-68
2022/02/12 03:06:10;;;;;;;1999.90;999.90;;;;;;;-4.48;61.73;102951.72;4980308;28;98750;-69
2022/02/12 03:08:40;;;;;;;1999.90;999.90;;;;;;;-4.48;61.28;102959.50;4975982;28;97187;-70
2022/02/12 03:11:09;;;;;;;1999.90;999.90;;;;;;;-4.46;61.35;102957.13;4978052;28;102146;-68
2022/02/12 03:13:37;;;;;;;1999.90;999.90;;;;;;;-4.45;61.34;102954.69;4962627;28;100005;-69
2022/02/12 03:16:05;;;;;;;1999.90;999.90;;;;;;;-4.44;61.17;102947.81;4981057;28;96849;-68
2022/02/12 03:18:33;;;;;;;1999.90;999.90;;;;;;;-4.44;61.28;102948.72;4981618;28;97349;-69
2022/02/12 03:21:00;;;;;;;1999.90;999.90;;;;;;;-4.44;61.30;102947.81;4981341;28;97828;-69
2022/02/12 03:23:28;;;;;;;1999.90;999.90;;;;;;;-4.45;61.32;102941.69;4978654;28;100408;-68
2022/02/12 03:25:57;;;;;;;1999.90;999.90;;;;;;;-4.46;61.38;102955.41;4980446;28;97898;-69
2022/02/12 03:28:25;;;;;;;1999.90;999.90;;;;;;;-4.46;61.18;102945.03;4979430;28;98309;-70
2022/02/12 03:30:53;;;;;;;1999.90;999.90;;;;;;;-4.46;61.33;102949.31;4980831;28;97213;-70
2022/02/12 03:33:21;;;;;;;1999.90;999.90;;;;;;;-4.49;61.24;102954.13;4994923;28;101217;-68
2022/02/12 03:35:49;;;;;;;1999.90;999.90;;;;;;;-4.50;61.25;102958.44;4978672;28;97548;-68
2022/02/12 03:38:19;;;;;;;1999.90;999.90;;;;;;;-4.56;61.32;102947.31;4975436;28;98230;-68
2022/02/12 03:40:50;;;;;;;1999.90;999.90;;;;;;;-4.58;61.40;102942.69;4988895;28;98780;-69
2022/02/12 03:43:19;;;;;;;1999.90;999.90;;;;;;;-4.59;61.46;102935.66;4974657;28;99629;-68
2022/02/12 03:45:47;;;;;;;1999.90;999.90;;;;;;;-4.59;61.40;102931.41;4974918;28;97855;-67
2022/02/12 03:48:15;;;;;;;1999.90;999.90;;;;;;;-4.58;61.55;102937.50;4974606;28;99161;-68
2022/02/12 03:50:43;;;;;;;1999.90;999.90;;;;;;;-4.57;61.46;102944.56;4991158;28;97328;-69
2022/02/12 03:53:11;;;;;;;1999.90;999.90;;;;;;;-4.58;61.50;102947.88;4975710;28;97965;-68
2022/02/12 03:55:40;;;;;;;1999.90;999.90;;;;;;;-4.60;61.59;102941.59;4979550;28;97587;-68
2022/02/12 03:58:09;;;;;;;1999.90;999.90;;;;;;;-4.61;61.57;102934.56;4973017;28;98866;-68
2022/02/12 04:00:39;;;;;;;1999.90;999.90;;;;;;;-4.61;61.17;102945.88;4987459;28;97010;-68
2022/02/12 04:03:08;;;;;;;1999.90;999.90;;;;;;;-4.59;61.43;102940.84;4990254;28;99342;-68
2022/02/12 04:05:36;;;;;;;1999.90;999.90;;;;;;;-4.59;61.38;102936.59;4974284;28;100119;-68
2022/02/12 04:08:04;;;;;;;1999.90;999.90;;;;;;;-4.58;61.39;102943.63;4973459;28;98138;-68
2022/02/12 04:10:32;;;;;;;1999.90;999.90;;;;;;;-4.59;61.44;102933.06;4977180;28;99006;-68
2022/02/12 04:13:01;;;;;;;1999.90;999.90;;;;;;;-4.59;61.52;102933.06;4977862;28;98039;-68
2022/02/12 04:15:30;;;;;;;1999.90;999.90;;;;;;;-4.58;61.50;102937.50;4978294;28;99209;-68
2022/02/12 04:18:00;;;;;;;1999.90;999.90;;;;;;;-4.59;61.65;102926.19;4977514;28;98260;-69
2022/02/12 04:20:28;;;;;;;1999.90;999.90;;;;;;;-4.57;61.55;102934.16;4993948;28;97269;-68
2022/02/12 04:22:56;;;;;;;1999.90;999.90;;;;;;;-4.58;61.62;102933.22;4978648;28;99380;-68
2022/02/12 04:25:25;;;;;;;1999.90;999.90;;;;;;;-4.57;61.34;102926.38;4995014;28;99932;-69
2022/02/12 04:27:55;;;;;;;1999.90;999.90;;;;;;;-4.56;61.45;102931.75;4977223;28;97977;-68
2022/02/12 04:30:23;;;;;;;1999.90;999.90;;;;;;;-4.54;61.74;102930.25;4977857;28;98763;-68
2022/02/12 04:32:51;;;;;;;1999.90;999.90;;;;;;;-4.53;61.35;102932.09;4977061;28;97584;-68
2022/02/12 04:35:20;;;;;;;1999.90;999.90;;;;;;;-4.54;61.57;102924.13;4976621;28;98868;-68
2022/02/12 04:37:48;;;;;;;1999.90;999.90;;;;;;;-4.53;61.39;102921.69;4977383;28;97428;-69
2022/02/12 04:40:15;;;;;;;1999.90;999.90;;;;;;;-4.54;61.23;102917.25;4978159;28;98731;-68
2022/02/12 04:42:43;;;;;;;1999.90;999.90;;;;;;;-4.55;61.21;102909.28;4979301;28;99608;-68
2022/02/12 04:45:11;;;;;;;1999.90;999.90;;;;;;;-4.56;61.44;102921.34;4977444;28;97584;-68
2022/02/12 04:47:40;;;;;;;1999.90;999.90;;;;;;;-4.57;61.42;102914.28;4977076;28;96863;-68
2022/02/12 04:50:09;;;;;;;1999.90;999.90;;;;;;;-4.56;61.40;102923.94;4975758;28;99093;-68
2022/02/12 04:52:39;;;;;;;1999.90;999.90;;;;;;;-4.60;61.42;102919.13;4979700;28;99546;-68
2022/02/12 04:55:07;;;;;;;1999.90;999.90;;;;;;;-4.63;61.34;102913.59;4977403;28;100483;-68
2022/02/12 04:57:35;;;;;;;1999.90;999.90;;;;;;;-4.66;61.48;102909.72;4977387;28;96878;-68
2022/02/12 05:00:04;;;;;;;1999.90;999.90;;;;;;;-4.69;61.50;102922.34;4974702;28;98186;-68
2022/02/12 05:02:34;;;;;;;1999.90;999.90;;;;;;;-4.72;61.66;102914.22;4973204;28;98751;-67
2022/02/12 05:05:02;;;;;;;1999.90;999.90;;;;;;;-4.74;61.69;102914.03;4974321;28;100781;-68
2022/02/12 05:07:30;;;;;;;1999.90;999.90;;;;;;;-4.76;61.79;102912.94;4974260;28;99440;-68
2022/02/12 05:10:00;;;;;;;1999.90;999.90;;;;;;;-4.78;61.49;102917.03;4976138;28;99419;-68
2022/02/12 05:12:28;;;;;;;1999.90;999.90;;;;;;;-4.82;61.71;102912.22;4973911;28;97834;-68
2022/02/12 05:14:56;;;;;;;1999.90;999.90;;;;;;;-4.81;61.54;102905.34;4978838;28;97705;-68
2022/02/12 05:17:23;;;;;;;1999.90;999.90;;;;;;;-4.79;61.49;102920.38;4978749;28;97310;-68
2022/02/12 05:19:51;;;;;;;1999.90;999.90;;;;;;;-4.78;61.63;102917.03;4978698;28;97937;-67
2022/02/12 05:22:21;;;;;;;1999.90;999.90;;;;;;;-4.77;61.66;102915.34;4975962;28;100713;-67
2022/02/12 05:24:48;;;;;;;1999.90;999.90;;;;;;;-4.77;61.50;102913.66;4980067;28;97763;-68
2022/02/12 05:27:17;;;;;;;1999.90;999.90;;;;;;;-4.77;61.45;102910.16;4976596;28;97767;-67
2022/02/12 05:29:45;;;;;;;1999.90;999.90;;;;;;;-4.79;61.52;102912.59;4978570;28;97219;-68
2022/02/12 05:32:13;;;;;;;1999.90;999.90;;;;;;;-4.84;61.69;102908.50;4983882;28;99472;-69
2022/02/12 05:34:42;;;;;;;1999.90;999.90;;;;;;;-4.85;61.59;102906.66;4984269;28;99326;-68
2022/02/12 05:37:10;;;;;;;1999.90;999.90;;;;;;;-4.86;61.54;102899.63;4983252;28;96874;-68
2022/02/12 05:39:38;;;;;;;1999.90;999.90;;;;;;;-4.85;61.69;102898.88;4985229;28;98479;-69
2022/02/12 05:42:06;;;;;;;1999.90;999.90;;;;;;;-4.87;61.62;102895.19;4984294;28;97993;-71
2022/02/12 05:44:35;;;;;;;1999.90;999.90;;;;;;;-4.88;61.56;102895.00;4982816;28;99743;-70
2022/02/12 05:47:04;;;;;;;1999.90;999.90;;;;;;;-4.90;61.60;102900.03;4986476;28;98145;-70
2022/02/12 05:49:31;;;;;;;1999.90;999.90;;;;;;;-4.92;61.85;102901.53;4985357;28;97319;-70
2022/02/12 05:52:01;;;;;;;1999.90;999.90;;;;;;;-4.93;61.72;102895.41;4986672;28;97678;-70
2022/02/12 05:54:29;;;;;;;1999.90;999.90;;;;;;;-4.93;61.56;102887.59;4984397;28;97630;-70
2022/02/12 05:56:57;;;;;;;1999.90;999.90;;;;;;;-4.91;61.69;102895.56;4984451;28;98006;-70
2022/02/12 05:59:25;;;;;;;1999.90;999.90;;;;;;;-4.92;61.38;102905.00;4986603;28;97834;-70
2022/02/12 06:01:55;;;;;;;1999.90;999.90;;;;;;;-4.93;61.77;102895.41;4977664;28;99825;-72
2022/02/12 06:04:23;;;;;;;1999.90;999.90;;;;;;;-4.94;61.83;102898.75;4977554;28;99590;-71
2022/02/12 06:06:51;;;;;;;1999.90;999.90;;;;;;;-4.94;61.51;102903.94;4994146;28;97816;-70
2022/02/12 06:09:18;;;;;;;1999.90;999.90;;;;;;;-4.93;61.54;102897.06;4991309;28;96990;-69
2022/02/12 06:11:46;;;;;;;1999.90;999.90;;;;;;;-4.94;61.58;102898.75;4992027;28;97311;-71
2022/02/12 06:14:14;;;;;;;1999.90;999.90;;;;;;;-4.94;61.63;102908.19;4989037;28;98242;-70
2022/02/12 06:16:41;;;;;;;1999.90;999.90;;;;;;;-4.96;61.51;102910.63;4982958;28;97288;-71
2022/02/12 06:19:11;;;;;;;1999.90;999.90;;;;;;;-4.98;61.51;102908.59;4992661;28;97050;-71
2022/02/12 06:21:39;;;;;;;1999.90;999.90;;;;;;;-4.99;61.51;102915.44;4988831;28;99588;-71
2022/02/12 06:24:09;;;;;;;1999.90;999.90;;;;;;;-5.01;61.27;102909.13;4985378;28;97246;-71
2022/02/12 06:26:39;;;;;;;1999.90;999.90;;;;;;;-5.01;61.66;102901.34;4987333;28;97424;-70
2022/02/12 06:29:07;;;;;;;1999.90;999.90;;;;;;;-5.01;61.69;102909.13;4985599;28;97387;-71
2022/02/12 06:31:34;;;;;;;1999.90;999.90;;;;;;;-5.00;61.59;102899.69;4988569;28;99094;-71
2022/02/12 06:34:02;;;;;;;1999.90;999.90;;;;;;;-4.99;61.58;102888.56;4987022;28;97525;-70
2022/02/12 06:36:31;;;;;;;1999.90;999.90;;;;;;;-4.96;61.56;102896.72;4986822;28;97291;-70
2022/02/12 06:39:00;;;;;;;1999.90;999.90;;;;;;;-4.97;61.65;102892.25;4991937;28;98401;-71
2022/02/12 06:41:28;;;;;;;1999.90;999.90;;;;;;;-4.94;61.69;102892.63;5006540;27;99932;-69
2022/02/12 06:43:56;;;;;;;1999.90;999.90;;;;;;;-4.92;61.62;102898.94;4989475;28;98732;-71
2022/02/12 06:46:24;;;;;;;1999.90;999.90;;;;;;;-4.92;61.61;102893.72;4990169;28;97850;-71
2022/02/12 06:48:51;;;;;;;1999.90;999.90;;;;;;;-4.91;61.49;102901.69;4974504;28;98867;-71
2022/02/12 06:51:19;;;;;;;1999.90;999.90;;;;;;;-4.88;61.34;102893.31;4991147;28;99076;-70
2022/02/12 06:53:48;;;;;;;1999.90;999.90;;;;;;;-4.88;61.60;102899.44;4991308;28;97555;-70
2022/02/12 06:56:16;;;;;;;1999.90;999.90;;;;;;;-4.88;61.27;102888.13;4991378;28;98084;-70
2022/02/12 06:58:43;;;;;;;1999.90;999.90;;;;;;;-4.86;61.53;102897.00;4999040;28;98310;-70
2022/02/12 07:01:11;;;;;;;1999.90;999.90;;;;;;;-4.84;61.47;102897.22;4994112;28;98172;-71
2022/02/12 07:03:39;;;;;;;1999.90;999.90;;;;;;;-4.84;61.30;102892.94;4993134;28;98950;-70
2022/02/12 07:06:06;;;;;;;1999.90;999.90;;;;;;;-4.82;61.28;102895.69;4993456;28;98809;-70
2022/02/12 07:08:34;;;;;;;1999.90;999.90;;;;;;;-4.81;61.34;102889.78;4992329;28;96921;-71
2022/02/12 07:11:03;;;;;;;1999.90;999.90;;;;;;;-4.80;61.30;102897.72;4995983;28;98778;-70
2022/02/12 07:13:31;;;;;;;1999.90;999.90;;;;;;;-4.79;61.21;102893.47;4993703;28;97827;-71
2022/02/12 07:16:01;;;;;;;1999.90;999.90;;;;;;;-4.77;61.36;102898.06;4990275;28;97502;-71
2022/02/12 07:18:29;;;;;;;1999.90;999.90;;;;;;;-4.77;61.26;102895.47;4970852;28;98109;-72
2022/02/12 07:20:57;;;;;;;1999.90;999.90;;;;;;;-4.74;61.26;102898.47;4985737;28;100513;-70
2022/02/12 07:23:25;;;;;;;1999.90;999.90;;;;;;;-4.74;61.08;102897.53;5002700;28;97766;-70
2022/02/12 07:25:52;;;;;;;1999.90;999.90;;;;;;;-4.73;61.17;102895.09;4986757;28;97159;-71
2022/02/12 07:28:21;;;;;;;1999.90;999.90;;;;;;;-4.72;61.23;102894.38;4988337;28;96808;-71
2022/02/12 07:30:49;;;;;;;1999.90;999.90;;;;;;;-4.68;61.29;102906.94;5002550;28;99349;-71
2022/02/12 07:33:17;;;;;;;1999.90;999.90;;;;;;;-4.65;61.05;102901.19;5006180;28;99762;-71
2022/02/12 07:35:44;;;;;;;1999.90;999.90;;;;;;;-4.62;61.07;102898.91;4987998;28;97353;-71
2022/02/12 07:38:12;;;;;;;1999.90;999.90;;;;;;;-4.60;61.07;102893.16;4987235;28;97275;-71
2022/02/12 07:40:40;;;;;;;1999.90;999.90;;;;;;;-4.58;61.02;102894.28;4973014;28;99325;-70
2022/02/12 07:43:07;;;;;;;1999.90;999.90;;;;;;;-4.56;60.94;102892.78;4988051;28;101156;-71
2022/02/12 07:45:38;;;;;;;1999.90;999.90;;;;;;;-4.54;61.04;102901.66;4983936;28;98533;-71
2022/02/12 07:48:06;;;;;;;1999.90;999.90;;;;;;;-4.51;60.96;102899.41;4999814;28;97818;-70
2022/02/12 07:50:34;;;;;;;1999.90;999.90;;;;;;;-4.48;60.87;102893.66;4980486;28;98897;-71
2022/02/12 07:53:01;;;;;;;1999.90;999.90;;;;;;;-4.46;60.70;102898.25;4995036;28;99278;-71
2022/02/12 07:55:30;;;;;;;1999.90;999.90;;;;;;;-4.43;60.91;102896.03;4978854;28;98814;-70
2022/02/12 07:57:58;;;;;;;1999.90;999.90;;;;;;;-4.41;60.67;102897.13;4984513;28;97888;-71
2022/02/12 08:00:26;;;;;;;1999.90;999.90;;;;;;;-4.38;61.07;102894.88;4983305;28;100095;-70
2022/02/12 08:02:56;;;;;;;1999.90;999.90;;;;;;;-4.34;60.99;102886.69;4975861;28;99109;-71
2022/02/12 08:05:25;;;;;;;1999.90;999.90;;;;;;;-4.31;60.70;102886.09;4987950;28;98949;-71
2022/02/12 08:07:52;;;;;;;1999.90;999.90;;;;;;;-4.28;60.85;102891.66;4992112;28;98522;-71
2022/02/12 08:13:05;;;;;;;1999.90;999.90;;;;;;;-4.22;60.70;102892.31;4976632;28;98013;-68
2022/02/12 08:15:36;;;;;;;1999.90;999.90;;;;;;;-4.19;60.53;102882.28;4992523;28;98743;-70
2022/02/12 08:18:06;;;;;;;1999.90;999.90;;;;;;;-4.16;60.43;102886.16;4976717;28;99493;-69
2022/02/12 08:20:33;;;;;;;1999.90;999.90;;;;;;;-4.11;60.39;102895.41;4977898;28;100568;-70
2022/02/12 08:23:01;;;;;;;1999.90;999.90;;;;;;;-4.06;60.49;102896.84;4981727;28;100557;-70
2022/02/12 08:25:29;;;;;;;1999.90;999.90;;;;;;;-4.03;60.04;102894.59;4981170;28;96877;-70
2022/02/12 08:27:57;;;;;;;1999.90;999.90;;;;;;;-3.97;60.68;102884.88;4983045;28;97387;-70
2022/02/12 08:30:24;;;;;;;1999.90;999.90;;;;;;;-3.92;60.34;102894.13;4985228;28;99187;-70
2022/02/12 08:32:52;;;;;;;1999.90;999.90;;;;;;;-3.87;60.17;102892.03;4983296;28;99219;-70
2022/02/12 08:35:38;;;;;;;1999.90;999.90;;;;;;;-3.81;60.23;102891.78;4986280;28;96740;-71
2022/02/12 08:38:06;;;;;;;1999.90;999.90;;;;;;;-3.77;60.11;102883.59;4987072;28;99766;-68
2022/02/12 08:40:34;;;;;;;1999.90;999.90;;;;;;;-3.70;59.68;102880.91;4999726;28;97580;-71
2022/02/12 08:43:02;;;;;;;1999.90;999.90;;;;;;;-3.67;59.64;102887.38;5002078;28;99238;-70
2022/02/12 08:45:29;;;;;;;1999.90;999.90;;;;;;;-3.60;59.87;102883.78;4984153;28;96896;-70
2022/02/12 08:47:57;;;;;;;1999.90;999.90;;;;;;;-3.57;59.47;102873.72;4978736;28;97881;-70
2022/02/12 08:50:25;;;;;;;1999.90;999.90;;;;;;;-3.55;59.15;102878.34;4974141;28;98498;-70
2022/02/12 08:52:54;;;;;;;1999.90;999.90;;;;;;;-3.53;58.46;102886.31;4986063;28;102565;-71
2022/02/12 08:55:21;;;;;;;1999.90;999.90;;;;;;;-3.51;59.07;102872.69;4955623;28;97423;-71
2022/02/12 08:57:49;;;;;;;1999.90;999.90;;;;;;;-3.50;58.76;102881.44;4971029;28;99719;-70
2022/02/12 09:00:17;;;;;;;1999.90;999.90;;;;;;;-3.49;58.59;102880.66;4956780;28;100678;-70
2022/02/12 09:03:05;;;;;;;1999.90;999.90;;;;;;;-3.46;58.84;102884.56;4988898;28;99640;-68
2022/02/12 09:05:33;;;;;;;1999.90;999.90;;;;;;;-3.41;58.68;102874.66;4977262;28;97428;-71
2022/02/12 09:08:02;;;;;;;1999.90;999.90;;;;;;;-3.35;58.46;102868.41;4970638;28;98645;-69
2022/02/12 09:10:30;;;;;;;1999.90;999.90;;;;;;;-3.30;58.39;102866.34;4983184;28;98599;-70
2022/02/12 09:12:57;;;;;;;1999.90;999.90;;;;;;;-3.26;58.57;102863.31;4991911;28;100412;-70
2022/02/12 09:15:26;;;;;;;1999.90;999.90;;;;;;;-3.21;58.54;102863.06;4975134;28;98487;-70
2022/02/12 09:17:53;;;;;;;1999.90;999.90;;;;;;;-3.14;58.15;102859.44;4981870;28;96965;-71
2022/02/12 09:20:21;;;;;;;1999.90;999.90;;;;;;;-3.09;57.14;102866.06;4990325;28;98976;-71
2022/02/12 09:22:49;;;;;;;1999.90;999.90;;;;;;;-3.01;57.27;102862.63;4976827;28;97175;-71
2022/02/12 09:25:18;;;;;;;1999.90;999.90;;;;;;;-2.95;57.86;102858.97;4977274;28;98652;-70
2022/02/12 09:27:46;;;;;;;1999.90;999.90;;;;;;;-2.87;58.36;102854.59;4977629;28;97323;-70
2022/02/12 09:30:14;;;;;;;1999.90;999.90;;;;;;;-2.80;57.46;102849.28;4975977;28;97922;-70
2022/02/12 09:32:42;;;;;;;1999.90;999.90;;;;;;;-2.77;56.51;102852.22;4968232;28;100636;-70
2022/02/12 09:35:09;;;;;;;1999.90;999.90;;;;;;;-2.70;56.84;102844.31;4976439;28;97746;-71
2022/02/12 09:37:37;;;;;;;1999.90;999.90;;;;;;;-2.63;56.93;102846.81;4980279;28;97482;-72
2022/02/12 09:40:09;;;;;;;1999.90;999.90;;;;;;;-2.56;57.18;102844.09;4979834;28;97996;-71
2022/02/12 09:42:39;;;;;;;1999.90;999.90;;;;;;;-2.52;55.60;102835.84;4965321;28;99048;-71
2022/02/12 09:45:08;;;;;;;1999.90;999.90;;;;;;;-2.44;56.40;102831.44;4974279;28;98234;-71
2022/02/12 09:47:43;;;;;;;1999.90;999.90;;;;;;;-2.36;57.00;102833.19;4986103;28;98928;-71
2022/02/12 09:50:12;;;;;;;1999.90;999.90;;;;;;;-2.28;57.09;102834.88;4975944;28;98722;-71
2022/02/12 09:52:41;;;;;;;1999.90;999.90;;;;;;;-2.22;55.53;102836.47;4982133;28;98847;-71
2022/02/12 09:55:10;;;;;;;1999.90;999.90;;;;;;;-2.15;55.90;102844.19;4979357;28;98822;-71
2022/02/12 09:57:39;;;;;;;1999.90;999.90;;;;;;;-2.08;56.19;102840.53;4980281;28;98506;-71
2022/02/12 10:00:09;;;;;;;1999.90;999.90;;;;;;;-2.02;56.35;102846.41;4981889;28;97662;-71
2022/02/12 10:02:38;;;;;;;1999.90;999.90;;;;;;;-1.96;55.17;102836.56;4982317;28;99294;-70
2022/02/12 10:05:20;;;;;;;1999.90;999.90;;;;;;;-1.94;54.91;102829.84;4980720;28;96930;-70
2022/02/12 10:07:49;;;;;;;1999.90;999.90;;;;;;;-1.91;54.92;102833.69;4978381;28;99531;-71
2022/02/12 10:10:19;;;;;;;1999.90;999.90;;;;;;;-1.89;54.58;102821.72;4981457;28;97805;-72
2022/02/12 10:12:48;;;;;;;1999.90;999.90;;;;;;;-1.86;54.76;102827.28;4980342;28;99012;-72
2022/02/12 10:15:24;;;;;;;1999.90;999.90;;;;;;;-1.91;50.74;102823.25;4981866;28;97738;-71
2022/02/12 10:17:54;;;;;;;1999.90;999.90;;;;;;;-1.83;53.32;102817.94;4980518;28;100748;-73
2022/02/12 10:20:30;;;;;;;1999.90;999.90;;;;;;;-1.78;54.58;102822.84;4982411;28;98525;-72
2022/02/12 10:23:10;;;;;;;1999.90;999.90;;;;;;;-1.73;51.28;102815.47;4964491;28;100877;-72
2022/02/12 10:25:39;;;;;;;1999.90;999.90;;;;;;;-1.66;52.68;102816.25;4980958;28;99948;-72
2022/02/12 10:28:10;;;;;;;1999.90;999.90;;;;;;;-1.62;53.60;102814.88;4981146;28;99144;-72
2022/02/12 10:30:39;;;;;;;1999.90;999.90;;;;;;;-1.58;53.43;102810.16;4981736;28;99289;-71
2022/02/12 10:33:08;;;;;;;1999.90;999.90;;;;;;;-1.54;52.93;102809.66;4980263;28;97661;-71
2022/02/12 10:35:37;;;;;;;1999.90;999.90;;;;;;;-1.51;53.18;102812.63;4982527;28;97920;-72
2022/02/12 10:38:07;;;;;;;1999.90;999.90;;;;;;;-1.44;54.58;102804.63;4982925;28;99588;-71
2022/02/12 10:40:36;;;;;;;1999.90;999.90;;;;;;;-1.37;54.65;102798.31;4981543;28;98836;-71
2022/02/12 10:43:03;;;;;;;1999.90;999.90;;;;;;;-1.32;54.59;102791.91;4982456;28;98570;-70
2022/02/12 10:45:33;;;;;;;1999.90;999.90;;;;;;;-1.26;54.35;102797.72;4980899;28;97252;-71
2022/02/12 10:48:02;;;;;;;1999.90;999.90;;;;;;;-1.21;52.95;102783.41;4980724;28;97421;-72
2022/02/12 10:50:32;;;;;;;1999.90;999.90;;;;;;;-1.18;53.26;102783.75;4979950;28;100788;-70
2022/02/12 10:53:02;;;;;;;1999.90;999.90;;;;;;;-1.17;52.98;102780.34;4981368;28;99036;-73
2022/02/12 10:55:32;;;;;;;1999.90;999.90;;;;;;;-1.14;53.33;102759.78;4980545;28;97738;-71
2022/02/12 10:58:02;;;;;;;1999.90;999.90;;;;;;;-1.10;53.64;102767.13;4982565;28;98536;-71
2022/02/12 11:00:31;;;;;;;1999.90;999.90;;;;;;;-1.05;53.42;102752.84;4981617;28;99215;-73
2022/02/12 11:03:05;;;;;;;1999.90;999.90;;;;;;;-1.02;53.22;102756.69;4981098;28;99758;-72